Главная страница
METAR-TAF:

METAR-TAF

Аэропорты :

Bedford, Пенсильвания, США

широта: 40-05-10N, долгота: 078-30-49W, высота над уровнем моря: 354 м

Текущие метеонаблюдения

Эта сводка был подготовлена 18 минут назад, в 20:55 UTC
Ветер 11 Узел от северо-западный
Температура 8°C
Влажность 76%
Давление 1012 hPa
Видимость: 16.1 км
Рассеянная облачность на высоте 2300 фута
Рассеянная облачность на высоте 2800 фута
Сплошная облачность на высоте 3300 фута

METAR: KHMZ 072055Z AUTO 32011KT 10SM BKN023 BKN028 OVC033 08/04 A2988 RMK AO2 60005 T00800041

Время: 17:13 (21:13 UTC)


TAF: отсутствует

Метеонаблюдения и прогнозы для более 4000 аэропортов (сводки METAR и TAF).

Имеющиеся станции представлены на карте желтыми и красными точками.

Чтобы увидеть название станции, наведите на нее мышь.

Затем щелкните, чтобы увидеть метеонаблюдения и метеопрогнозы.

Управление картой: чтобы увеличить масштаб, щелкните зеленые кнопки с черным крестиком; чтобы уменьшить масштаб, щелкните зеленую кнопку с тире; для просмотра соседних карт щелкайте зеленые стрелки.


METAR-TAF: